createdAt,value
2024-04-24T00:02:01.214Z,9.30
2024-04-24T00:04:28.983Z,9.50
2024-04-24T00:06:56.729Z,9.00
2024-04-24T00:09:24.402Z,9.00
2024-04-24T00:11:52.410Z,9.30
2024-04-24T00:14:21.663Z,10.30
2024-04-24T00:16:49.372Z,9.70
2024-04-24T00:19:17.059Z,8.80
2024-04-24T00:21:44.742Z,9.10
2024-04-24T00:24:16.783Z,10.00
2024-04-24T00:26:44.847Z,9.10
2024-04-24T00:29:12.516Z,9.80
2024-04-24T00:31:40.186Z,9.40
2024-04-24T00:34:08.734Z,8.60
2024-04-24T00:36:36.404Z,8.80
2024-04-24T00:39:04.113Z,9.80
2024-04-24T00:41:31.766Z,9.00
2024-04-24T00:43:59.516Z,9.40
2024-04-24T00:46:29.852Z,8.00
2024-04-24T00:48:59.665Z,9.50
2024-04-24T00:51:28.606Z,9.30
2024-04-24T00:53:56.343Z,9.10
2024-04-24T00:56:24.545Z,9.50
2024-04-24T00:58:52.863Z,9.40
2024-04-24T01:01:21.306Z,9.30
2024-04-24T01:03:49.536Z,9.20
2024-04-24T01:06:17.249Z,10.00
2024-04-24T01:08:44.964Z,9.60
2024-04-24T01:11:12.872Z,9.10
2024-04-24T01:13:40.658Z,9.60
2024-04-24T01:16:17.780Z,9.00
2024-04-24T01:19:08.205Z,10.10
2024-04-24T01:22:01.856Z,9.80
2024-04-24T01:24:37.383Z,9.80
2024-04-24T01:27:05.275Z,9.40
2024-04-24T01:29:33.268Z,10.00
2024-04-24T01:32:01.099Z,10.30
2024-04-24T01:34:28.799Z,9.50
2024-04-24T01:36:56.509Z,9.60
2024-04-24T01:39:24.263Z,10.00
2024-04-24T01:41:52.033Z,9.70
2024-04-24T01:44:19.746Z,9.50
2024-04-24T01:46:47.647Z,9.80
2024-04-24T01:49:15.411Z,10.50
2024-04-24T01:51:43.174Z,9.90
2024-04-24T01:54:10.824Z,9.30
2024-04-24T01:56:38.603Z,10.50
2024-04-24T01:59:06.326Z,10.70
2024-04-24T02:01:34.024Z,10.50
2024-04-24T02:04:01.828Z,10.50
2024-04-24T02:06:29.484Z,10.00
2024-04-24T02:08:57.320Z,9.90
2024-04-24T02:11:25.057Z,9.10
2024-04-24T02:13:53.033Z,9.60
2024-04-24T02:16:20.698Z,9.50
2024-04-24T02:18:48.527Z,10.10
2024-04-24T02:21:16.301Z,9.40
2024-04-24T02:23:43.973Z,10.40
2024-04-24T02:26:12.114Z,9.00
2024-04-24T02:28:39.867Z,10.30
2024-04-24T02:31:07.632Z,9.00
2024-04-24T02:33:35.856Z,9.50
2024-04-24T02:36:03.969Z,9.80
2024-04-24T02:38:31.678Z,11.30
2024-04-24T02:40:59.561Z,9.50
2024-04-24T02:43:27.400Z,9.30
2024-04-24T02:45:55.884Z,10.00
2024-04-24T02:48:23.764Z,10.70
2024-04-24T02:50:51.495Z,9.20
2024-04-24T02:53:19.235Z,9.40
2024-04-24T02:55:47.155Z,9.30
2024-04-24T02:58:14.791Z,9.70
2024-04-24T03:00:42.483Z,9.60
2024-04-24T03:03:10.381Z,8.50
2024-04-24T03:05:38.355Z,9.20
2024-04-24T03:08:06.260Z,10.00
2024-04-24T03:10:33.903Z,9.60
2024-04-24T03:13:01.582Z,9.20
2024-04-24T03:15:29.202Z,9.30
2024-04-24T03:17:57.028Z,8.40
2024-04-24T03:20:24.939Z,9.20
2024-04-24T03:22:52.828Z,8.90
2024-04-24T03:25:20.516Z,9.50
2024-04-24T03:27:48.272Z,8.90
2024-04-24T03:30:15.978Z,9.70
2024-04-24T03:32:43.831Z,10.00
2024-04-24T03:35:11.694Z,9.20
2024-04-24T03:37:39.892Z,9.40
2024-04-24T03:40:08.193Z,8.90
2024-04-24T03:42:37.864Z,8.90
2024-04-24T03:45:06.030Z,8.60
2024-04-24T03:47:33.939Z,9.30
2024-04-24T03:50:01.840Z,8.30
2024-04-24T03:52:29.619Z,9.30
2024-04-24T03:54:57.302Z,9.10
2024-04-24T03:57:25.065Z,8.40
2024-04-24T03:59:52.779Z,7.90
2024-04-24T04:02:20.554Z,9.00
2024-04-24T04:04:48.335Z,8.50
2024-04-24T04:07:16.195Z,9.00
2024-04-24T04:09:44.788Z,9.20
2024-04-24T04:12:13.555Z,9.20
2024-04-24T04:14:41.642Z,9.30
2024-04-24T04:17:10.216Z,9.20
2024-04-24T04:19:38.397Z,9.10
2024-04-24T04:22:06.161Z,9.00
2024-04-24T04:24:33.945Z,10.30
2024-04-24T04:27:02.112Z,9.40
2024-04-24T04:29:29.976Z,9.80
2024-04-24T04:31:57.791Z,9.50
2024-04-24T04:34:26.306Z,9.60
2024-04-24T04:36:54.200Z,9.70
2024-04-24T04:39:21.887Z,10.50
2024-04-24T04:41:49.707Z,9.70
2024-04-24T04:44:17.606Z,10.50
2024-04-24T04:46:45.515Z,9.90
2024-04-24T04:49:13.586Z,9.40
2024-04-24T04:51:41.317Z,10.30
2024-04-24T04:54:09.015Z,9.30
2024-04-24T04:56:36.800Z,10.10
2024-04-24T04:59:04.508Z,10.00
2024-04-24T05:01:32.291Z,9.70
2024-04-24T05:04:00.032Z,9.40
2024-04-24T05:06:28.208Z,10.40
2024-04-24T05:08:55.913Z,10.50
2024-04-24T05:11:23.740Z,10.70
2024-04-24T05:13:51.611Z,10.60
2024-04-24T05:16:19.382Z,10.00
2024-04-24T05:18:47.501Z,9.60
2024-04-24T05:21:15.278Z,10.60
2024-04-24T05:23:42.983Z,15.70
2024-04-24T05:26:29.087Z,13.70
2024-04-24T05:29:07.778Z,12.80
2024-04-24T05:31:36.998Z,14.40
2024-04-24T05:34:05.339Z,20.50
2024-04-24T05:36:33.393Z,13.00
2024-04-24T05:39:01.177Z,11.30
2024-04-24T05:41:28.936Z,10.40
2024-04-24T05:43:56.691Z,11.00
2024-04-24T05:46:24.403Z,11.30
2024-04-24T05:48:52.257Z,11.20
2024-04-24T05:51:20.142Z,10.70
2024-04-24T05:53:47.830Z,11.30
2024-04-24T05:56:15.674Z,11.80
2024-04-24T05:58:44.811Z,11.70
2024-04-24T06:01:12.537Z,12.30
2024-04-24T06:03:40.278Z,11.10
2024-04-24T06:06:07.974Z,10.90
2024-04-24T06:08:35.699Z,10.50
2024-04-24T06:11:03.630Z,10.80
2024-04-24T06:13:31.444Z,11.00
2024-04-24T06:15:59.186Z,10.40
2024-04-24T06:18:26.954Z,10.60
2024-04-24T06:20:54.668Z,11.70
2024-04-24T06:23:22.469Z,13.00
2024-04-24T06:25:50.225Z,11.70
2024-04-24T06:28:17.986Z,11.90
2024-04-24T06:30:45.686Z,11.60
2024-04-24T06:33:13.691Z,12.30
2024-04-24T06:35:41.691Z,12.50
2024-04-24T06:38:09.655Z,11.90
2024-04-24T06:40:37.539Z,12.90
2024-04-24T06:43:05.312Z,14.10
2024-04-24T06:45:32.964Z,11.80
2024-04-24T06:48:01.167Z,12.80
2024-04-24T06:50:29.176Z,12.00
2024-04-24T06:52:57.247Z,12.50
2024-04-24T06:55:27.175Z,13.50
2024-04-24T06:57:57.555Z,13.20
2024-04-24T07:00:29.149Z,12.70
2024-04-24T07:02:58.039Z,13.00
2024-04-24T07:05:25.820Z,15.20
2024-04-24T07:07:53.654Z,15.50
2024-04-24T07:10:21.418Z,13.70
2024-04-24T07:12:49.495Z,14.00
2024-04-24T07:15:17.327Z,13.90
2024-04-24T07:17:45.421Z,13.10
2024-04-24T07:20:13.338Z,12.40
2024-04-24T07:22:41.092Z,12.20
2024-04-24T07:25:08.777Z,11.70
2024-04-24T07:27:36.564Z,11.70
2024-04-24T07:30:07.012Z,12.20
2024-04-24T07:32:35.002Z,13.30
2024-04-24T07:35:02.995Z,11.60
2024-04-24T07:37:30.879Z,12.10
2024-04-24T07:40:00.902Z,11.30
2024-04-24T07:42:28.651Z,12.60
2024-04-24T07:44:56.370Z,12.00
2024-04-24T07:47:24.348Z,12.30
2024-04-24T07:49:52.364Z,11.70
2024-04-24T07:52:20.034Z,12.30
2024-04-24T07:54:47.771Z,11.00
2024-04-24T07:57:15.448Z,12.30
2024-04-24T07:59:43.425Z,12.00
2024-04-24T08:02:11.124Z,12.80
2024-04-24T08:04:38.843Z,11.70
2024-04-24T08:07:06.621Z,11.50
2024-04-24T08:09:34.243Z,11.70
2024-04-24T08:12:02.146Z,13.50
2024-04-24T08:14:30.441Z,14.20
2024-04-24T08:16:58.368Z,12.70
2024-04-24T08:19:26.012Z,13.80
2024-04-24T08:21:53.782Z,14.20
2024-04-24T08:24:21.420Z,13.00
2024-04-24T08:26:49.159Z,14.20
2024-04-24T08:29:16.926Z,14.70
2024-04-24T08:31:44.742Z,16.40
2024-04-24T08:34:12.513Z,15.80
2024-04-24T08:36:42.989Z,13.30
2024-04-24T08:41:44.258Z,12.50
2024-04-24T08:44:13.882Z,11.90
2024-04-24T08:46:43.644Z,13.40
2024-04-24T08:49:11.835Z,14.10
2024-04-24T08:51:43.128Z,20.90
2024-04-24T08:54:20.091Z,14.50
2024-04-24T08:57:00.272Z,13.80
2024-04-24T08:59:32.858Z,14.70
2024-04-24T09:02:06.159Z,14.60
2024-04-24T09:04:35.963Z,15.40
2024-04-24T09:07:04.736Z,15.40
2024-04-24T09:09:33.371Z,15.20
2024-04-24T09:12:02.904Z,14.10
2024-04-24T09:14:32.624Z,14.60
2024-04-24T09:17:01.883Z,15.50
2024-04-24T09:19:30.438Z,15.30
2024-04-24T09:21:58.146Z,14.50
2024-04-24T09:24:25.919Z,17.70
2024-04-24T09:26:55.578Z,15.30
2024-04-24T09:29:24.037Z,14.80
2024-04-24T09:31:51.880Z,19.00
2024-04-24T09:34:19.798Z,15.50
2024-04-24T09:36:48.699Z,15.60
2024-04-24T09:39:17.962Z,20.90
2024-04-24T09:41:49.475Z,15.60
2024-04-24T09:44:17.445Z,17.60
2024-04-24T09:46:55.663Z,13.80
2024-04-24T09:49:24.185Z,13.40
2024-04-24T09:51:52.041Z,15.00
2024-04-24T09:54:22.494Z,14.60
2024-04-24T09:56:55.392Z,13.80
2024-04-24T09:59:30.726Z,15.20
2024-04-24T10:02:13.166Z,16.70
2024-04-24T10:04:48.509Z,14.90
2024-04-24T10:09:49.264Z,14.00
2024-04-24T10:12:30.606Z,13.80
2024-04-24T10:15:12.829Z,13.60
2024-04-24T10:17:42.941Z,14.20
2024-04-24T10:20:19.522Z,14.30
2024-04-24T10:22:54.946Z,14.70
2024-04-24T10:25:24.280Z,14.00
2024-04-24T10:27:53.178Z,18.40
2024-04-24T10:30:21.613Z,41.70
2024-04-24T10:32:49.541Z,33.60
2024-04-24T10:35:20.540Z,30.60
2024-04-24T10:37:53.795Z,17.90
2024-04-24T10:40:28.697Z,14.70
2024-04-24T10:43:00.365Z,15.30
2024-04-24T10:45:28.888Z,14.20
2024-04-24T10:47:57.479Z,14.40
2024-04-24T10:50:29.328Z,15.30
2024-04-24T10:55:25.474Z,17.20
2024-04-24T10:57:54.690Z,13.80
2024-04-24T11:00:23.915Z,13.00
2024-04-24T11:03:00.439Z,16.20
2024-04-24T11:05:36.868Z,15.20
2024-04-24T11:08:06.111Z,14.40
2024-04-24T11:10:35.146Z,36.10
2024-04-24T11:13:13.982Z,63.50
2024-04-24T11:15:45.353Z,83.00
2024-04-24T11:18:18.794Z,64.40
2024-04-24T11:20:46.689Z,27.40
2024-04-24T11:23:14.661Z,16.70
2024-04-24T11:25:57.992Z,14.60
2024-04-24T11:28:28.031Z,24.40
2024-04-24T11:30:56.276Z,22.00
2024-04-24T11:33:24.651Z,16.30
2024-04-24T11:35:53.548Z,15.40
2024-04-24T11:38:21.385Z,18.80
2024-04-24T11:40:49.187Z,16.30
2024-04-24T11:43:17.839Z,39.30
2024-04-24T11:45:46.207Z,24.30
2024-04-24T11:48:14.078Z,20.40
2024-04-24T11:50:42.024Z,28.00
2024-04-24T11:53:10.025Z,17.00
2024-04-24T11:55:37.745Z,24.90
2024-04-24T11:58:14.977Z,25.80
2024-04-24T12:00:42.906Z,17.70
2024-04-24T12:03:10.954Z,22.50
2024-04-24T12:05:40.115Z,19.80
2024-04-24T12:08:09.795Z,20.40
2024-04-24T12:10:37.662Z,18.20
2024-04-24T12:13:05.596Z,27.00
2024-04-24T12:15:33.339Z,24.80
2024-04-24T12:18:01.166Z,22.50
2024-04-24T12:20:28.978Z,21.60
2024-04-24T12:22:56.784Z,22.70
2024-04-24T12:25:24.456Z,20.50
2024-04-24T12:27:52.317Z,26.20
2024-04-24T12:30:20.099Z,23.30
2024-04-24T12:32:48.375Z,24.30
2024-04-24T12:35:16.200Z,25.20
2024-04-24T12:37:43.931Z,18.30
2024-04-24T12:40:13.847Z,18.60
2024-04-24T12:42:41.708Z,22.00
2024-04-24T12:45:09.767Z,18.70
2024-04-24T12:47:37.879Z,18.10
2024-04-24T12:50:06.022Z,20.40
2024-04-24T12:52:34.053Z,19.70
2024-04-24T12:55:01.798Z,25.00
2024-04-24T12:57:29.492Z,21.20
2024-04-24T12:59:57.207Z,23.10
2024-04-24T13:02:25.098Z,17.50
2024-04-24T13:04:52.890Z,20.50
2024-04-24T13:07:20.582Z,17.90
2024-04-24T13:09:49.463Z,26.40
2024-04-24T13:12:20.390Z,19.70
2024-04-24T13:14:49.769Z,16.80
2024-04-24T13:17:17.628Z,18.40
2024-04-24T13:19:45.520Z,17.20
2024-04-24T13:22:13.217Z,18.00
2024-04-24T13:24:40.927Z,17.10
2024-04-24T13:27:08.587Z,16.60
2024-04-24T13:29:36.281Z,18.60
2024-04-24T13:32:04.071Z,19.50
2024-04-24T13:34:31.972Z,19.00
2024-04-24T13:36:59.744Z,17.40
2024-04-24T13:39:27.389Z,15.30
2024-04-24T13:41:55.162Z,16.40
2024-04-24T13:44:22.900Z,15.70
2024-04-24T13:46:50.622Z,16.20
2024-04-24T13:49:18.361Z,17.50
2024-04-24T13:51:46.151Z,20.40
2024-04-24T13:54:16.350Z,19.20
2024-04-24T13:56:44.905Z,20.00
2024-04-24T13:59:14.033Z,18.90
2024-04-24T14:01:41.950Z,18.80
2024-04-24T14:04:09.805Z,17.40
2024-04-24T14:06:37.618Z,17.80
2024-04-24T14:09:05.422Z,15.10
2024-04-24T14:11:33.175Z,21.60
2024-04-24T14:14:01.121Z,18.80
2024-04-24T14:16:28.910Z,21.60
2024-04-24T14:18:56.684Z,17.00
2024-04-24T14:21:24.358Z,19.80
2024-04-24T14:23:52.061Z,21.70
2024-04-24T14:26:20.232Z,18.40
2024-04-24T14:28:48.019Z,15.50
2024-04-24T14:31:15.856Z,18.70
2024-04-24T14:33:43.639Z,20.70
2024-04-24T14:36:11.434Z,20.40
2024-04-24T14:38:39.184Z,18.60
2024-04-24T14:41:08.899Z,16.80
2024-04-24T14:43:37.566Z,18.60
2024-04-24T14:46:06.141Z,18.60
2024-04-24T14:48:33.937Z,18.00
2024-04-24T14:51:02.214Z,19.40
2024-04-24T14:53:29.908Z,19.30
2024-04-24T14:55:58.888Z,21.30
2024-04-24T14:58:26.823Z,18.80
2024-04-24T15:00:55.596Z,18.80
2024-04-24T15:03:24.958Z,17.10
2024-04-24T15:05:52.807Z,19.10
2024-04-24T15:08:20.669Z,17.60
2024-04-24T15:10:49.899Z,18.70
2024-04-24T15:13:17.645Z,23.70
2024-04-24T15:15:47.291Z,23.60
2024-04-24T15:18:15.116Z,21.40
2024-04-24T15:20:42.954Z,17.70
2024-04-24T15:23:12.318Z,19.90
2024-04-24T15:25:43.390Z,20.00
2024-04-24T15:28:11.109Z,19.50
2024-04-24T15:30:38.805Z,20.00
2024-04-24T15:33:06.817Z,22.20
2024-04-24T15:35:34.875Z,22.20
2024-04-24T15:38:02.693Z,19.80
2024-04-24T15:40:30.418Z,20.40
2024-04-24T15:42:58.153Z,23.00
2024-04-24T15:45:27.015Z,19.50
2024-04-24T15:47:54.933Z,21.80
2024-04-24T15:50:22.756Z,20.40
2024-04-24T15:52:50.475Z,23.40
2024-04-24T15:55:18.133Z,20.10
2024-04-24T15:57:45.804Z,22.50
2024-04-24T16:00:13.847Z,21.90
2024-04-24T16:02:44.102Z,24.10
2024-04-24T16:05:14.458Z,24.80
2024-04-24T16:07:42.472Z,25.40
2024-04-24T16:10:10.765Z,24.00
2024-04-24T16:12:38.511Z,25.60
2024-04-24T16:15:06.759Z,25.30
2024-04-24T16:17:34.569Z,23.80
2024-04-24T16:20:02.721Z,27.90
2024-04-24T16:22:30.670Z,24.10
2024-04-24T16:24:58.449Z,23.80
2024-04-24T16:27:26.154Z,22.70
2024-04-24T16:29:53.835Z,25.60
2024-04-24T16:32:22.300Z,24.90
2024-04-24T16:34:50.110Z,26.00
2024-04-24T16:37:17.895Z,25.30
2024-04-24T16:39:47.004Z,23.60
2024-04-24T16:42:14.787Z,23.10
2024-04-24T16:44:42.549Z,26.60
2024-04-24T16:47:11.764Z,29.00
2024-04-24T16:49:40.380Z,33.20
2024-04-24T16:52:11.150Z,34.70
2024-04-24T16:54:39.568Z,39.30
2024-04-24T16:57:08.220Z,33.80
2024-04-24T16:59:36.093Z,36.50
2024-04-24T17:02:03.849Z,30.20
2024-04-24T17:04:33.176Z,24.60
2024-04-24T17:07:00.990Z,27.30
2024-04-24T17:09:29.636Z,25.10
2024-04-24T17:11:58.044Z,28.60
2024-04-24T17:14:27.599Z,29.40
2024-04-24T17:16:55.405Z,27.00
2024-04-24T17:19:23.304Z,25.00
2024-04-24T17:21:51.312Z,29.50
2024-04-24T17:24:21.863Z,28.30
2024-04-24T17:26:52.843Z,27.20
2024-04-24T17:29:20.720Z,31.80
2024-04-24T17:31:48.424Z,30.60
2024-04-24T17:34:21.471Z,35.20
2024-04-24T17:36:49.113Z,32.90
2024-04-24T17:39:17.509Z,28.70
2024-04-24T17:41:45.411Z,28.80
2024-04-24T17:44:13.351Z,31.60
2024-04-24T17:46:41.251Z,33.70
2024-04-24T17:49:08.983Z,32.60
2024-04-24T17:51:37.467Z,38.00
2024-04-24T17:54:05.323Z,33.50
2024-04-24T17:56:34.322Z,39.90
2024-04-24T17:59:02.165Z,31.70
2024-04-24T18:01:29.913Z,32.70
2024-04-24T18:03:57.609Z,31.40
2024-04-24T18:06:25.446Z,28.50
2024-04-24T18:08:53.149Z,38.10
2024-04-24T18:11:21.290Z,33.50
2024-04-24T18:13:49.195Z,34.10
2024-04-24T18:16:16.933Z,40.90
2024-04-24T18:18:45.163Z,35.50
2024-04-24T18:21:12.929Z,39.20
2024-04-24T18:23:40.815Z,37.40
2024-04-24T18:26:08.586Z,31.60
2024-04-24T18:28:36.342Z,35.10
2024-04-24T18:31:04.225Z,34.50
2024-04-24T18:33:32.013Z,33.30
2024-04-24T18:36:00.241Z,35.80
2024-04-24T18:38:28.389Z,35.00
2024-04-24T18:40:56.201Z,27.90
2024-04-24T18:43:23.902Z,31.60
2024-04-24T18:45:51.627Z,31.40
2024-04-24T18:48:20.597Z,34.20
2024-04-24T18:50:48.411Z,33.00
2024-04-24T18:53:16.197Z,29.00
2024-04-24T18:55:44.850Z,25.70
2024-04-24T18:58:12.656Z,30.30
2024-04-24T19:00:40.913Z,25.20
2024-04-24T19:03:08.786Z,33.00
2024-04-24T19:05:36.683Z,28.90
2024-04-24T19:08:05.124Z,27.80
2024-04-24T19:10:32.843Z,27.60
2024-04-24T19:13:00.563Z,26.60
2024-04-24T19:15:29.391Z,29.00
2024-04-24T19:17:57.171Z,28.20
2024-04-24T19:20:25.259Z,25.50
2024-04-24T19:22:53.181Z,30.20
2024-04-24T19:25:21.012Z,31.70
2024-04-24T19:27:48.774Z,26.70
2024-04-24T19:30:16.588Z,26.90
2024-04-24T19:32:44.471Z,23.20
2024-04-24T19:35:12.390Z,22.20
2024-04-24T19:37:40.270Z,20.70
2024-04-24T19:40:08.635Z,21.00
2024-04-24T19:42:36.436Z,20.00
2024-04-24T19:45:04.471Z,21.10
2024-04-24T19:47:32.196Z,21.90
2024-04-24T19:50:01.163Z,19.20
2024-04-24T19:52:29.031Z,16.80
2024-04-24T19:54:56.715Z,19.60
2024-04-24T19:57:24.373Z,19.30
2024-04-24T19:59:52.115Z,20.20
2024-04-24T20:02:21.240Z,18.10
2024-04-24T20:04:50.109Z,17.90
2024-04-24T20:07:17.816Z,17.60
2024-04-24T20:09:46.237Z,18.30
2024-04-24T20:12:14.011Z,17.60
2024-04-24T20:14:42.000Z,16.00
2024-04-24T20:17:10.112Z,16.10
2024-04-24T20:19:38.171Z,16.70
2024-04-24T20:22:06.105Z,17.30
2024-04-24T20:24:33.827Z,17.40
2024-04-24T20:27:01.522Z,17.20
2024-04-24T20:29:29.400Z,17.60
2024-04-24T20:31:57.153Z,16.80
2024-04-24T20:34:28.322Z,17.60
2024-04-24T20:36:56.398Z,17.00
2024-04-24T20:39:24.228Z,19.50
2024-04-24T20:41:51.863Z,18.60
2024-04-24T20:44:22.104Z,17.70
2024-04-24T20:46:49.873Z,18.60
2024-04-24T20:49:17.612Z,18.20
2024-04-24T20:51:45.460Z,24.90
2024-04-24T20:54:13.270Z,24.40
2024-04-24T20:56:40.959Z,23.50
2024-04-24T20:59:09.208Z,21.10
2024-04-24T21:01:38.518Z,17.40
2024-04-24T21:04:06.979Z,16.70
2024-04-24T21:06:36.187Z,18.70
2024-04-24T21:09:03.926Z,17.80
2024-04-24T21:11:31.742Z,16.90
2024-04-24T21:13:59.546Z,17.40
2024-04-24T21:16:27.283Z,16.40
2024-04-24T21:18:55.461Z,15.80
2024-04-24T21:21:23.561Z,15.70
2024-04-24T21:23:52.086Z,16.80
2024-04-24T21:26:19.907Z,15.50
2024-04-24T21:28:48.274Z,15.50
2024-04-24T21:31:16.002Z,15.00
2024-04-24T21:33:43.740Z,15.20
2024-04-24T21:36:11.490Z,14.30
2024-04-24T21:38:39.386Z,15.70
2024-04-24T21:41:20.135Z,16.40
2024-04-24T21:43:49.274Z,15.70
2024-04-24T21:46:19.569Z,13.70
2024-04-24T21:48:47.427Z,15.50
2024-04-24T21:51:15.192Z,14.60
2024-04-24T21:53:43.120Z,14.80
2024-04-24T21:56:10.917Z,13.70
2024-04-24T21:58:39.947Z,14.90
2024-04-24T22:01:09.002Z,15.20
2024-04-24T22:03:36.988Z,15.00
2024-04-24T22:06:05.715Z,15.90
2024-04-24T22:08:33.519Z,17.20
2024-04-24T22:11:01.502Z,14.70
2024-04-24T22:13:29.413Z,15.00
2024-04-24T22:15:57.110Z,19.50
2024-04-24T22:18:24.995Z,14.80
2024-04-24T22:20:52.833Z,17.60
2024-04-24T22:23:20.548Z,15.50
2024-04-24T22:25:48.310Z,14.50
2024-04-24T22:28:16.068Z,14.50
2024-04-24T22:30:43.940Z,13.70
2024-04-24T22:33:11.680Z,14.40
2024-04-24T22:35:39.801Z,14.90
2024-04-24T22:38:09.402Z,15.10
2024-04-24T22:40:37.257Z,14.10
2024-04-24T22:43:05.085Z,14.20
2024-04-24T22:45:32.868Z,16.10
2024-04-24T22:48:00.743Z,15.10
2024-04-24T22:50:28.715Z,14.30
2024-04-24T22:52:56.507Z,13.90
2024-04-24T22:55:24.220Z,14.80
2024-04-24T22:57:51.894Z,15.00
2024-04-24T23:00:19.712Z,16.10
2024-04-24T23:02:47.819Z,15.10
2024-04-24T23:05:15.870Z,14.60
2024-04-24T23:07:43.731Z,15.50
2024-04-24T23:10:11.595Z,15.80
2024-04-24T23:12:39.351Z,14.80
2024-04-24T23:15:07.291Z,14.00
2024-04-24T23:17:35.112Z,14.40
2024-04-24T23:20:03.228Z,14.70
2024-04-24T23:22:31.029Z,15.20
2024-04-24T23:24:58.877Z,15.30
2024-04-24T23:27:26.519Z,14.20
2024-04-24T23:29:54.270Z,13.80
2024-04-24T23:32:22.010Z,15.70
2024-04-24T23:34:49.796Z,15.00
2024-04-24T23:37:17.443Z,15.50
2024-04-24T23:39:45.202Z,14.90
2024-04-24T23:42:12.838Z,13.70
2024-04-24T23:44:40.619Z,14.30
2024-04-24T23:47:08.412Z,15.90
2024-04-24T23:49:36.232Z,15.60
2024-04-24T23:52:04.045Z,16.40
2024-04-24T23:54:31.772Z,15.80
2024-04-24T23:56:59.414Z,16.40
2024-04-24T23:59:27.132Z,14.70
